createdAt,value
2022-10-30T00:04:32.623Z,27.90
2022-10-30T00:14:38.336Z,27.40
2022-10-30T00:24:43.930Z,28.60
2022-10-30T00:34:49.754Z,31.50
2022-10-30T00:44:55.504Z,29.40
2022-10-30T00:55:04.798Z,29.40
2022-10-30T01:05:11.966Z,27.10
2022-10-30T01:15:18.739Z,27.00
2022-10-30T01:25:38.392Z,24.80
2022-10-30T01:35:49.435Z,25.00
2022-10-30T01:46:15.816Z,25.00
2022-10-30T01:56:37.763Z,23.70
2022-10-30T02:06:43.946Z,26.30
2022-10-30T02:16:53.978Z,25.20
2022-10-30T02:27:00.185Z,24.20
2022-10-30T02:37:05.778Z,24.40
2022-10-30T02:47:11.492Z,22.90
2022-10-30T02:57:17.077Z,21.00
2022-10-30T03:07:22.639Z,23.60
2022-10-30T03:17:28.337Z,21.30
2022-10-30T03:27:34.152Z,24.10
2022-10-30T03:37:39.780Z,21.50
2022-10-30T03:47:45.341Z,22.70
2022-10-30T03:57:51.040Z,20.60
2022-10-30T04:08:00.413Z,20.00
2022-10-30T04:18:06.366Z,20.20
2022-10-30T04:28:12.540Z,20.50
2022-10-30T04:38:19.706Z,20.40
2022-10-30T04:48:25.689Z,20.70
2022-10-30T04:58:31.321Z,21.20
2022-10-30T05:08:36.979Z,20.30
2022-10-30T05:18:42.786Z,22.80
2022-10-30T05:28:48.704Z,21.60
2022-10-30T05:38:54.374Z,21.60
2022-10-30T05:49:00.669Z,22.30
2022-10-30T05:59:06.308Z,21.90
2022-10-30T06:09:11.973Z,22.30
2022-10-30T06:19:18.813Z,20.60
2022-10-30T06:29:25.161Z,22.40
2022-10-30T06:39:30.977Z,20.30
2022-10-30T06:49:36.562Z,23.80
2022-10-30T06:59:42.084Z,20.40
2022-10-30T07:09:47.739Z,22.60
2022-10-30T07:19:53.493Z,23.30
2022-10-30T07:29:59.800Z,23.50
2022-10-30T07:40:11.502Z,20.70
2022-10-30T07:50:18.475Z,20.00
2022-10-30T08:00:24.349Z,17.90
2022-10-30T08:10:30.146Z,17.10
2022-10-30T08:20:35.907Z,18.10
2022-10-30T08:30:42.281Z,17.80
2022-10-30T08:40:48.522Z,18.40
2022-10-30T08:50:55.021Z,18.00
2022-10-30T09:01:01.769Z,16.70
2022-10-30T09:11:08.250Z,18.20
2022-10-30T09:21:13.963Z,17.90
2022-10-30T09:31:19.773Z,19.10
2022-10-30T09:41:41.005Z,19.00
2022-10-30T09:52:14.828Z,20.10
2022-10-30T10:02:34.396Z,18.00
2022-10-30T10:12:45.255Z,20.60
2022-10-30T10:22:52.623Z,18.30
2022-10-30T10:33:18.772Z,20.00
2022-10-30T10:43:36.872Z,18.50
2022-10-30T11:03:56.794Z,15.50
2022-10-30T11:14:02.532Z,13.80
2022-10-30T11:24:28.965Z,13.50
2022-10-30T11:34:36.806Z,13.50
2022-10-30T11:44:46.134Z,15.20
2022-10-30T11:54:54.738Z,14.40
2022-10-30T12:05:04.052Z,13.50
2022-10-30T12:15:21.918Z,14.30
2022-10-30T12:25:30.430Z,12.90
2022-10-30T12:35:45.898Z,13.50
2022-10-30T12:45:55.240Z,13.20
2022-10-30T12:56:06.461Z,13.80
2022-10-30T13:06:17.775Z,14.50
2022-10-30T13:16:27.588Z,14.20
2022-10-30T13:26:39.354Z,13.10
2022-10-30T13:36:51.026Z,13.80
2022-10-30T13:47:09.567Z,15.80
2022-10-30T13:57:21.317Z,15.50
2022-10-30T14:07:38.119Z,14.80
2022-10-30T14:18:20.754Z,16.00
2022-10-30T14:28:26.499Z,17.30
2022-10-30T14:38:37.137Z,15.60
2022-10-30T14:48:53.332Z,14.50
2022-10-30T14:59:21.822Z,15.50
2022-10-30T15:09:40.588Z,14.50
2022-10-30T15:19:46.326Z,16.90
2022-10-30T15:29:55.017Z,15.70
2022-10-30T15:40:23.483Z,14.90
2022-10-30T15:50:29.356Z,17.10
2022-10-30T16:00:39.014Z,17.50
2022-10-30T16:10:46.466Z,20.90
2022-10-30T16:20:53.695Z,36.90
2022-10-30T16:31:03.814Z,26.90
2022-10-30T16:41:13.508Z,43.20
2022-10-30T16:51:21.545Z,37.70
2022-10-30T17:01:29.417Z,44.00
2022-10-30T17:11:42.002Z,40.00
2022-10-30T17:21:48.172Z,34.20
2022-10-30T17:31:59.301Z,35.00
2022-10-30T17:42:05.344Z,29.90
2022-10-30T17:52:14.688Z,34.30
2022-10-30T18:02:22.801Z,29.00
2022-10-30T18:12:28.917Z,31.10
2022-10-30T18:22:34.691Z,29.30
2022-10-30T18:32:40.448Z,28.60
2022-10-30T18:42:46.174Z,29.30
2022-10-30T18:52:52.459Z,42.80
2022-10-30T19:02:59.400Z,55.10
2022-10-30T19:13:13.079Z,49.20
2022-10-30T19:23:22.282Z,44.70
2022-10-30T19:33:28.296Z,39.80
2022-10-30T19:43:34.025Z,38.40
2022-10-30T19:53:40.067Z,42.90
2022-10-30T20:03:45.689Z,51.60
2022-10-30T20:13:53.871Z,55.80
2022-10-30T20:24:00.486Z,55.80
2022-10-30T20:34:06.405Z,45.70
2022-10-30T20:44:14.346Z,48.20
2022-10-30T20:54:20.567Z,41.10
2022-10-30T21:04:26.443Z,43.30
2022-10-30T21:14:32.245Z,46.30
2022-10-30T21:24:38.173Z,43.30
2022-10-30T21:34:44.076Z,42.90
2022-10-30T21:44:49.738Z,45.30
2022-10-30T21:54:55.233Z,41.20
2022-10-30T22:05:00.951Z,45.30
2022-10-30T22:15:08.843Z,43.90
2022-10-30T22:25:14.607Z,43.20
2022-10-30T22:35:20.278Z,44.90
2022-10-30T22:45:26.367Z,46.30
2022-10-30T22:55:31.950Z,43.00
2022-10-30T23:05:37.630Z,39.30
2022-10-30T23:15:43.172Z,46.80
2022-10-30T23:25:48.841Z,45.60
2022-10-30T23:36:00.994Z,43.00
2022-10-30T23:46:06.769Z,45.80
2022-10-30T23:56:12.711Z,44.90
